Time;durP1;ratioP1;P1;durP2;ratioP2;P2;SDS_P1;SDS_P2;PMS_P1;PMS_P2;Temp;Humidity;BMP_temperature;BMP_pressure;BME280_temperature;BME280_humidity;BME280_pressure;Samples;Min_cycle;Max_cycle;Signal;HPM_P1;HPM_P2
2023/03/14 00:02:17;;;;;;;3.35;1.42;;;;;;;;;;5031409;28;20386;-59
2023/03/14 00:04:43;;;;;;;3.72;1.17;;;;;;;;;;5031523;28;20036;-58
2023/03/14 00:07:11;;;;;;;3.15;0.93;;;;;;;;;;5031726;28;20021;-57
2023/03/14 00:09:37;;;;;;;3.05;1.20;;;;;;;;;;5031709;28;20048;-58
2023/03/14 00:12:03;;;;;;;3.53;1.00;;;;;;;;;;5031419;28;20021;-60
2023/03/14 00:14:29;;;;;;;4.30;1.17;;;;;;;;;;5030883;28;20486;-59
2023/03/14 00:16:55;;;;;;;4.95;1.30;;;;;;;;;;5031329;28;20056;-59
2023/03/14 00:19:21;;;;;;;4.45;1.48;;;;;;;;;;5030977;28;20060;-59
2023/03/14 00:21:47;;;;;;;3.40;1.20;;;;;;;;;;5030799;28;20030;-59
2023/03/14 00:24:13;;;;;;;4.15;1.40;;;;;;;;;;5031177;28;20026;-59
2023/03/14 00:26:39;;;;;;;4.47;1.15;;;;;;;;;;5031521;28;20411;-58
2023/03/14 00:29:05;;;;;;;6.22;1.42;;;;;;;;;;5031181;28;20021;-60
2023/03/14 00:31:31;;;;;;;4.07;1.40;;;;;;;;;;5030894;28;20037;-59
2023/03/14 00:33:57;;;;;;;4.47;1.40;;;;;;;;;;5031124;28;20041;-60
2023/03/14 00:36:24;;;;;;;4.03;1.50;;;;;;;;;;5030305;28;20466;-60
2023/03/14 00:38:50;;;;;;;4.68;1.20;;;;;;;;;;5031399;28;20436;-59
2023/03/14 00:41:22;;;;;;;7.10;1.05;;;;;;;;;;5030517;28;20040;-59
2023/03/14 00:43:48;;;;;;;5.18;1.85;;;;;;;;;;5030979;28;20445;-56
2023/03/14 00:46:14;;;;;;;2.95;1.45;;;;;;;;;;5030396;28;20033;-60
2023/03/14 00:48:40;;;;;;;3.63;1.27;;;;;;;;;;5031291;28;20484;-59
2023/03/14 00:51:07;;;;;;;6.80;1.58;;;;;;;;;;5031253;28;20112;-60
2023/03/14 00:53:37;;;;;;;3.78;1.30;;;;;;;;;;5030730;28;20038;-60
2023/03/14 00:56:04;;;;;;;4.03;1.15;;;;;;;;;;5030654;28;20100;-60
2023/03/14 00:58:30;;;;;;;2.78;1.10;;;;;;;;;;5030698;28;20068;-59
2023/03/14 01:00:56;;;;;;;4.80;1.35;;;;;;;;;;5030917;28;20063;-59
2023/03/14 01:03:23;;;;;;;5.82;1.85;;;;;;;;;;5030664;28;20359;-59
2023/03/14 01:05:49;;;;;;;3.40;1.08;;;;;;;;;;5030975;28;20393;-60
2023/03/14 01:08:16;;;;;;;4.75;1.30;;;;;;;;;;5030482;28;20034;-59
2023/03/14 01:10:42;;;;;;;4.43;1.20;;;;;;;;;;5030520;28;20033;-59
2023/03/14 01:13:08;;;;;;;4.05;1.13;;;;;;;;;;5030901;28;20084;-59
2023/03/14 01:15:35;;;;;;;3.90;1.08;;;;;;;;;;5030415;28;20022;-60
2023/03/14 01:18:01;;;;;;;3.80;1.20;;;;;;;;;;5030544;28;20122;-60
2023/03/14 01:20:27;;;;;;;3.65;1.15;;;;;;;;;;5030016;28;20026;-59
2023/03/14 01:22:53;;;;;;;4.18;1.00;;;;;;;;;;5032200;28;20116;-59
2023/03/14 01:25:19;;;;;;;5.05;1.17;;;;;;;;;;5034286;28;20025;-59
2023/03/14 01:27:45;;;;;;;3.75;0.88;;;;;;;;;;5034466;28;20363;-60
2023/03/14 01:30:12;;;;;;;3.10;0.90;;;;;;;;;;5033032;28;20027;-58
2023/03/14 01:32:39;;;;;;;4.43;1.20;;;;;;;;;;5034616;28;20048;-61
2023/03/14 01:35:05;;;;;;;4.75;1.20;;;;;;;;;;5034044;28;20025;-60
2023/03/14 01:37:31;;;;;;;4.95;1.30;;;;;;;;;;5034094;28;20026;-61
2023/03/14 01:39:57;;;;;;;4.45;1.30;;;;;;;;;;5034335;28;20409;-60
2023/03/14 01:42:23;;;;;;;3.95;1.27;;;;;;;;;;5033984;28;20030;-60
2023/03/14 01:44:59;;;;;;;5.53;1.40;;;;;;;;;;5034116;28;20022;-58
2023/03/14 01:47:26;;;;;;;4.90;1.33;;;;;;;;;;5033878;28;20119;-59
2023/03/14 01:49:52;;;;;;;3.78;1.30;;;;;;;;;;5033704;28;20029;-58
2023/03/14 01:52:25;;;;;;;4.00;1.48;;;;;;;;;;5033549;28;20059;-60
2023/03/14 01:54:53;;;;;;;3.83;1.30;;;;;;;;;;5033985;28;20033;-59
2023/03/14 01:57:39;;;;;;;4.10;1.23;;;;;;;;;;5033556;28;20021;-57
2023/03/14 02:00:11;;;;;;;4.53;1.05;;;;;;;;;;5033920;28;20025;-61
2023/03/14 02:02:37;;;;;;;3.47;1.48;;;;;;;;;;5034007;28;20044;-59
2023/03/14 02:05:04;;;;;;;2.97;0.90;;;;;;;;;;5032068;28;20029;-58
2023/03/14 02:07:36;;;;;;;2.33;1.23;;;;;;;;;;5033452;28;20025;-59
2023/03/14 02:10:02;;;;;;;2.60;0.77;;;;;;;;;;5033497;28;20037;-57
2023/03/14 02:12:28;;;;;;;3.05;1.10;;;;;;;;;;5032969;28;20030;-58
2023/03/14 02:14:54;;;;;;;4.95;0.95;;;;;;;;;;5033453;28;20034;-58
2023/03/14 02:17:21;;;;;;;4.28;1.25;;;;;;;;;;5031668;28;20056;-57
2023/03/14 02:19:51;;;;;;;2.25;1.00;;;;;;;;;;5032147;28;20021;-60
2023/03/14 02:22:17;;;;;;;3.53;1.10;;;;;;;;;;5033104;28;20169;-59
2023/03/14 02:24:43;;;;;;;4.40;1.27;;;;;;;;;;5033441;28;20040;-58
2023/03/14 02:27:10;;;;;;;2.55;1.13;;;;;;;;;;5033556;28;20025;-59
2023/03/14 02:29:38;;;;;;;4.28;1.20;;;;;;;;;;5033266;28;20041;-58
2023/03/14 02:32:04;;;;;;;6.25;0.95;;;;;;;;;;5033245;28;20018;-58
2023/03/14 02:34:31;;;;;;;3.97;1.20;;;;;;;;;;5031804;28;20060;-60
2023/03/14 02:36:57;;;;;;;3.28;1.35;;;;;;;;;;5033057;28;20485;-59
2023/03/14 02:39:27;;;;;;;4.47;1.05;;;;;;;;;;5033005;28;20143;-60
2023/03/14 02:41:53;;;;;;;4.97;1.30;;;;;;;;;;5033189;28;20030;-59
2023/03/14 02:44:19;;;;;;;4.05;1.33;;;;;;;;;;5032511;28;20036;-59
2023/03/14 02:46:45;;;;;;;4.10;1.40;;;;;;;;;;5033032;28;20482;-58
2023/03/14 02:49:12;;;;;;;5.07;1.17;;;;;;;;;;5032721;28;20026;-58
2023/03/14 02:51:40;;;;;;;4.45;1.10;;;;;;;;;;5033183;28;20033;-56
2023/03/14 02:54:06;;;;;;;3.20;0.85;;;;;;;;;;5033157;28;20033;-61
2023/03/14 02:56:32;;;;;;;3.42;0.90;;;;;;;;;;5032715;28;20025;-60
2023/03/14 02:58:58;;;;;;;4.13;1.02;;;;;;;;;;5032609;28;20079;-60
2023/03/14 03:01:24;;;;;;;3.00;0.95;;;;;;;;;;5032374;28;20029;-60
2023/03/14 03:03:50;;;;;;;3.78;1.15;;;;;;;;;;5032650;28;20052;-60
2023/03/14 03:06:16;;;;;;;3.17;1.27;;;;;;;;;;5032571;28;20152;-59
2023/03/14 03:08:42;;;;;;;3.50;1.30;;;;;;;;;;5032507;28;20033;-59
2023/03/14 03:11:08;;;;;;;3.25;1.15;;;;;;;;;;5032816;28;20025;-60
2023/03/14 03:13:35;;;;;;;4.32;1.38;;;;;;;;;;5031829;28;20068;-60
2023/03/14 03:16:01;;;;;;;2.95;1.17;;;;;;;;;;5032503;28;20950;-60
2023/03/14 03:18:27;;;;;;;2.97;0.93;;;;;;;;;;5032113;28;20056;-60
2023/03/14 03:20:52;;;;;;;4.32;1.50;;;;;;;;;;5032465;28;20021;-60
2023/03/14 03:23:18;;;;;;;3.90;1.05;;;;;;;;;;5032053;28;20036;-58
2023/03/14 03:25:53;;;;;;;3.05;1.00;;;;;;;;;;5032219;28;20573;-58
2023/03/14 03:28:20;;;;;;;3.57;1.17;;;;;;;;;;5031741;28;20025;-56
2023/03/14 03:30:46;;;;;;;3.67;0.77;;;;;;;;;;5032190;28;20033;-56
2023/03/14 03:33:12;;;;;;;4.20;1.10;;;;;;;;;;5031349;28;20041;-58
2023/03/14 03:35:51;;;;;;;4.28;1.33;;;;;;;;;;5032413;28;20083;-57
2023/03/14 03:38:19;;;;;;;3.75;0.93;;;;;;;;;;5031587;28;20040;-58
2023/03/14 03:40:45;;;;;;;2.63;0.70;;;;;;;;;;5031847;28;20060;-57
2023/03/14 03:43:11;;;;;;;2.10;0.82;;;;;;;;;;5031660;28;20072;-59
2023/03/14 03:45:37;;;;;;;4.93;1.10;;;;;;;;;;5031958;28;20826;-60
2023/03/14 03:48:03;;;;;;;3.30;0.88;;;;;;;;;;5031654;28;20056;-60
2023/03/14 03:50:29;;;;;;;3.20;0.85;;;;;;;;;;5031590;28;20509;-59
2023/03/14 03:52:55;;;;;;;4.10;1.10;;;;;;;;;;5031622;28;20025;-58
2023/03/14 03:55:21;;;;;;;2.50;0.80;;;;;;;;;;5031501;28;20095;-59
2023/03/14 03:57:47;;;;;;;3.08;1.17;;;;;;;;;;5031708;28;20017;-59
2023/03/14 04:00:14;;;;;;;4.32;1.10;;;;;;;;;;5031354;28;20128;-58
2023/03/14 04:02:39;;;;;;;3.13;1.05;;;;;;;;;;5031583;28;20067;-60
2023/03/14 04:05:06;;;;;;;2.13;0.88;;;;;;;;;;5031350;28;20057;-58
2023/03/14 04:07:32;;;;;;;1.83;0.60;;;;;;;;;;5031236;28;20030;-58
2023/03/14 04:09:58;;;;;;;3.95;1.10;;;;;;;;;;5031206;28;20159;-58
2023/03/14 04:12:24;;;;;;;4.40;0.93;;;;;;;;;;5030652;28;20053;-58
2023/03/14 04:14:50;;;;;;;4.47;0.98;;;;;;;;;;5031395;28;20397;-58
2023/03/14 04:17:16;;;;;;;2.75;0.68;;;;;;;;;;5031193;28;20141;-60
2023/03/14 04:19:42;;;;;;;3.45;1.13;;;;;;;;;;5031329;28;20021;-60
2023/03/14 04:22:09;;;;;;;3.15;1.05;;;;;;;;;;5031638;28;20036;-60
2023/03/14 04:24:35;;;;;;;3.25;1.10;;;;;;;;;;5029857;28;20037;-60
2023/03/14 04:27:01;;;;;;;2.38;0.93;;;;;;;;;;5030836;28;20060;-59
2023/03/14 04:29:27;;;;;;;4.40;1.25;;;;;;;;;;5030920;28;20075;-57
2023/03/14 04:31:53;;;;;;;2.70;1.13;;;;;;;;;;5031185;28;20086;-58
2023/03/14 04:34:19;;;;;;;2.28;0.80;;;;;;;;;;5030885;28;20048;-60
2023/03/14 04:36:45;;;;;;;3.67;0.93;;;;;;;;;;5030990;28;20377;-60
2023/03/14 04:39:11;;;;;;;2.08;0.82;;;;;;;;;;5031250;28;20026;-60
2023/03/14 04:41:37;;;;;;;2.35;0.88;;;;;;;;;;5030678;28;20386;-60
2023/03/14 04:44:03;;;;;;;1.50;0.55;;;;;;;;;;5030988;28;20030;-58
2023/03/14 04:46:29;;;;;;;2.50;0.88;;;;;;;;;;5030748;28;20022;-60
2023/03/14 04:48:56;;;;;;;2.85;1.10;;;;;;;;;;5030939;28;20029;-58
2023/03/14 04:51:23;;;;;;;2.90;0.70;;;;;;;;;;5030656;28;20026;-61
2023/03/14 04:53:49;;;;;;;2.83;0.85;;;;;;;;;;5030889;28;20045;-60
2023/03/14 04:56:15;;;;;;;2.03;0.60;;;;;;;;;;5030254;28;20090;-60
2023/03/14 04:58:41;;;;;;;2.45;0.80;;;;;;;;;;5034208;28;20033;-61
2023/03/14 05:01:07;;;;;;;3.97;1.00;;;;;;;;;;5035147;28;20021;-60
2023/03/14 05:03:35;;;;;;;2.47;1.05;;;;;;;;;;5034711;28;20044;-60
2023/03/14 05:06:01;;;;;;;1.38;0.50;;;;;;;;;;5034869;28;20021;-59
2023/03/14 05:08:27;;;;;;;2.28;0.80;;;;;;;;;;5034383;28;20057;-60
2023/03/14 05:10:54;;;;;;;1.65;0.70;;;;;;;;;;5034432;28;20033;-60
2023/03/14 05:13:20;;;;;;;3.95;1.00;;;;;;;;;;5034526;28;20033;-59
2023/03/14 05:15:46;;;;;;;1.90;0.80;;;;;;;;;;5034768;28;20497;-59
2023/03/14 05:18:12;;;;;;;1.83;0.70;;;;;;;;;;5034957;28;20025;-58
2023/03/14 05:20:38;;;;;;;1.80;0.70;;;;;;;;;;5034410;28;20371;-59
2023/03/14 05:23:04;;;;;;;2.63;1.00;;;;;;;;;;5034466;28;20033;-60
2023/03/14 05:25:30;;;;;;;1.83;0.65;;;;;;;;;;5033863;28;20490;-60
2023/03/14 05:27:56;;;;;;;1.90;0.60;;;;;;;;;;5034470;28;20039;-60
2023/03/14 05:30:22;;;;;;;2.20;0.50;;;;;;;;;;5034209;28;20037;-57
2023/03/14 05:32:48;;;;;;;2.05;0.85;;;;;;;;;;5034244;28;20136;-59
2023/03/14 05:35:14;;;;;;;1.65;0.50;;;;;;;;;;5032911;28;20087;-59
2023/03/14 05:37:40;;;;;;;1.90;0.77;;;;;;;;;;5034543;28;20499;-60
2023/03/14 05:40:08;;;;;;;2.38;0.60;;;;;;;;;;5034009;28;20100;-59
2023/03/14 05:42:34;;;;;;;3.42;0.60;;;;;;;;;;5034033;28;20448;-60
2023/03/14 05:45:00;;;;;;;2.20;0.82;;;;;;;;;;5034203;28;20029;-60
2023/03/14 05:47:26;;;;;;;1.25;0.50;;;;;;;;;;5033890;28;20030;-59
2023/03/14 05:49:52;;;;;;;2.70;0.70;;;;;;;;;;5034079;28;20025;-60
2023/03/14 05:52:18;;;;;;;1.02;0.50;;;;;;;;;;5033765;28;20034;-59
2023/03/14 05:54:44;;;;;;;5.38;0.88;;;;;;;;;;5033470;28;20034;-58
2023/03/14 05:57:10;;;;;;;1.85;0.70;;;;;;;;;;5034127;28;20113;-59
2023/03/14 05:59:36;;;;;;;2.40;0.70;;;;;;;;;;5033685;28;20018;-59
2023/03/14 06:02:02;;;;;;;1.42;0.50;;;;;;;;;;5033371;28;20028;-59
2023/03/14 06:04:28;;;;;;;0.98;0.50;;;;;;;;;;5033671;28;20022;-59
2023/03/14 06:06:54;;;;;;;1.65;0.70;;;;;;;;;;5033815;28;20033;-60
2023/03/14 06:09:22;;;;;;;1.38;0.50;;;;;;;;;;5033266;28;20038;-58
2023/03/14 06:11:48;;;;;;;3.40;0.63;;;;;;;;;;5032858;28;20037;-58
2023/03/14 06:14:14;;;;;;;0.90;0.40;;;;;;;;;;5033850;28;20037;-59
2023/03/14 06:16:40;;;;;;;2.40;0.55;;;;;;;;;;5032845;28;20393;-58
2023/03/14 06:19:06;;;;;;;1.58;0.70;;;;;;;;;;5037110;28;20026;-60
2023/03/14 06:21:32;;;;;;;2.10;0.60;;;;;;;;;;5032551;28;20052;-60
2023/03/14 06:23:58;;;;;;;2.08;0.63;;;;;;;;;;5032274;28;20579;-59
2023/03/14 06:26:24;;;;;;;2.10;0.60;;;;;;;;;;5032409;28;20045;-59
2023/03/14 06:28:50;;;;;;;2.22;0.85;;;;;;;;;;5033506;28;20026;-60
2023/03/14 06:31:17;;;;;;;1.02;0.50;;;;;;;;;;5033244;28;20029;-60
2023/03/14 06:33:43;;;;;;;1.42;0.50;;;;;;;;;;5032477;28;20064;-60
2023/03/14 06:36:09;;;;;;;2.55;0.70;;;;;;;;;;5032569;28;20038;-60
2023/03/14 06:38:35;;;;;;;1.42;0.60;;;;;;;;;;5031837;28;20041;-57
2023/03/14 06:41:08;;;;;;;1.42;0.50;;;;;;;;;;5039753;28;20021;-59
2023/03/14 06:43:34;;;;;;;0.63;0.30;;;;;;;;;;5034287;28;20476;-58
2023/03/14 06:46:00;;;;;;;1.70;0.63;;;;;;;;;;5032969;28;20064;-58
2023/03/14 06:48:26;;;;;;;1.35;0.70;;;;;;;;;;5032100;28;20057;-59
2023/03/14 06:50:52;;;;;;;2.35;0.93;;;;;;;;;;5033018;28;20112;-59
2023/03/14 06:53:18;;;;;;;1.45;0.60;;;;;;;;;;5032886;28;20034;-59
2023/03/14 06:55:45;;;;;;;1.30;0.57;;;;;;;;;;5033122;28;20026;-58
2023/03/14 06:58:11;;;;;;;1.48;0.43;;;;;;;;;;5033168;28;20076;-59
2023/03/14 07:00:37;;;;;;;2.63;0.90;;;;;;;;;;5031988;28;20053;-59
2023/03/14 07:03:03;;;;;;;2.15;0.90;;;;;;;;;;5032273;28;20021;-60
2023/03/14 07:05:29;;;;;;;1.92;0.75;;;;;;;;;;5032605;28;20033;-59
2023/03/14 07:07:55;;;;;;;3.42;0.98;;;;;;;;;;5032182;28;20159;-59
2023/03/14 07:10:21;;;;;;;2.25;0.55;;;;;;;;;;5031777;28;20087;-60
2023/03/14 07:12:47;;;;;;;2.65;0.75;;;;;;;;;;5032611;28;20409;-60
2023/03/14 07:15:13;;;;;;;1.33;0.45;;;;;;;;;;5032959;28;20057;-56
2023/03/14 07:17:39;;;;;;;2.85;0.65;;;;;;;;;;5032630;28;20025;-62
2023/03/14 07:20:05;;;;;;;2.30;0.80;;;;;;;;;;5031922;28;20036;-61
2023/03/14 07:22:31;;;;;;;3.63;0.98;;;;;;;;;;5032081;28;20022;-61
2023/03/14 07:24:57;;;;;;;2.45;1.00;;;;;;;;;;5031458;28;20037;-61
2023/03/14 07:27:23;;;;;;;3.70;0.70;;;;;;;;;;5031551;28;20030;-62
2023/03/14 07:29:49;;;;;;;4.22;1.00;;;;;;;;;;5032350;28;20402;-60
2023/03/14 07:32:15;;;;;;;6.30;1.33;;;;;;;;;;5032072;28;20100;-61
2023/03/14 07:34:41;;;;;;;4.82;1.95;;;;;;;;;;5032440;28;20061;-58
2023/03/14 07:37:08;;;;;;;8.98;3.85;;;;;;;;;;5031321;28;20068;-60
2023/03/14 07:39:34;;;;;;;14.65;4.93;;;;;;;;;;5031910;28;20514;-57
2023/03/14 07:42:00;;;;;;;15.82;6.38;;;;;;;;;;5030921;28;20028;-57
2023/03/14 07:44:26;;;;;;;12.13;7.05;;;;;;;;;;5031865;28;20021;-55
2023/03/14 07:46:52;;;;;;;17.98;7.70;;;;;;;;;;5031931;28;20075;-63
2023/03/14 07:49:18;;;;;;;19.80;8.48;;;;;;;;;;5031464;28;20144;-59
2023/03/14 07:51:44;;;;;;;23.77;9.13;;;;;;;;;;5031218;28;20036;-60
2023/03/14 07:54:11;;;;;;;18.73;8.50;;;;;;;;;;5031077;28;20052;-62
2023/03/14 07:56:37;;;;;;;21.27;9.88;;;;;;;;;;5043960;28;20104;-56
2023/03/14 07:59:03;;;;;;;23.10;9.45;;;;;;;;;;5048330;28;20108;-57
2023/03/14 08:01:29;;;;;;;24.08;10.07;;;;;;;;;;5031553;28;20029;-62
2023/03/14 08:03:55;;;;;;;25.20;11.18;;;;;;;;;;5029530;28;20393;-62
2023/03/14 08:06:21;;;;;;;22.67;9.77;;;;;;;;;;5029520;28;20030;-62
2023/03/14 08:08:47;;;;;;;19.40;9.30;;;;;;;;;;5029516;28;20508;-62
2023/03/14 08:11:13;;;;;;;22.13;9.93;;;;;;;;;;5030054;28;20029;-61
2023/03/14 08:13:39;;;;;;;24.63;10.05;;;;;;;;;;5030418;28;20061;-62
2023/03/14 08:16:06;;;;;;;24.27;9.93;;;;;;;;;;5029838;28;20022;-62
2023/03/14 08:18:32;;;;;;;19.63;8.02;;;;;;;;;;5029167;28;20036;-61
2023/03/14 08:20:58;;;;;;;22.90;10.25;;;;;;;;;;5029522;28;20087;-61
2023/03/14 08:23:25;;;;;;;22.42;9.27;;;;;;;;;;5030161;28;20048;-62
2023/03/14 08:25:51;;;;;;;18.23;8.77;;;;;;;;;;5030547;28;20029;-62
2023/03/14 08:28:17;;;;;;;19.13;8.80;;;;;;;;;;5030174;28;20429;-61
2023/03/14 08:30:43;;;;;;;18.48;9.20;;;;;;;;;;5030941;28;20044;-61
2023/03/14 08:33:09;;;;;;;21.70;10.02;;;;;;;;;;5030593;28;20516;-56
2023/03/14 08:35:37;;;;;;;20.90;9.48;;;;;;;;;;5031061;28;20026;-61
2023/03/14 08:38:03;;;;;;;23.30;9.75;;;;;;;;;;5031289;28;20029;-61
2023/03/14 08:40:29;;;;;;;20.17;8.80;;;;;;;;;;5031016;28;20509;-62
2023/03/14 08:42:55;;;;;;;19.50;9.35;;;;;;;;;;5031160;28;20025;-61
2023/03/14 08:45:21;;;;;;;18.23;8.20;;;;;;;;;;5030867;28;20029;-59
2023/03/14 08:47:47;;;;;;;17.35;7.75;;;;;;;;;;5031284;28;20100;-59
2023/03/14 08:50:13;;;;;;;14.50;8.13;;;;;;;;;;5031445;28;20026;-58
2023/03/14 08:52:40;;;;;;;16.13;8.18;;;;;;;;;;5031276;28;20063;-58
2023/03/14 08:55:07;;;;;;;18.83;7.97;;;;;;;;;;5029871;28;20037;-62
2023/03/14 08:57:33;;;;;;;18.13;8.45;;;;;;;;;;5031029;28;21149;-62
2023/03/14 08:59:59;;;;;;;18.58;8.98;;;;;;;;;;5031033;28;20113;-61
2023/03/14 09:02:26;;;;;;;16.55;7.28;;;;;;;;;;5030558;28;20029;-62
2023/03/14 09:04:52;;;;;;;16.88;7.47;;;;;;;;;;5030818;28;20033;-61
2023/03/14 09:07:18;;;;;;;18.02;8.15;;;;;;;;;;5030701;28;20021;-59
2023/03/14 09:09:44;;;;;;;17.30;7.32;;;;;;;;;;5030923;28;20111;-56
2023/03/14 09:12:10;;;;;;;19.67;7.82;;;;;;;;;;5031173;28;20024;-61
2023/03/14 09:14:36;;;;;;;18.23;7.90;;;;;;;;;;5030425;28;20040;-62
2023/03/14 09:17:03;;;;;;;18.33;8.05;;;;;;;;;;5030831;28;20026;-62
2023/03/14 09:19:29;;;;;;;13.82;6.90;;;;;;;;;;5030666;28;20029;-62
2023/03/14 09:21:55;;;;;;;14.07;7.25;;;;;;;;;;5030709;28;20021;-62
2023/03/14 09:24:21;;;;;;;16.60;7.57;;;;;;;;;;5030483;28;20079;-62
2023/03/14 09:26:47;;;;;;;14.90;7.20;;;;;;;;;;5030814;28;20171;-55
2023/03/14 09:29:13;;;;;;;15.15;6.70;;;;;;;;;;5030964;28;20382;-59
2023/03/14 09:31:39;;;;;;;16.42;7.38;;;;;;;;;;5031020;28;20033;-59
2023/03/14 09:34:05;;;;;;;13.65;6.28;;;;;;;;;;5030639;28;20040;-56
2023/03/14 09:36:31;;;;;;;12.38;6.25;;;;;;;;;;5030537;28;20524;-55
2023/03/14 09:38:57;;;;;;;12.73;6.13;;;;;;;;;;5030778;28;20087;-56
2023/03/14 09:41:28;;;;;;;16.13;7.07;;;;;;;;;;5030383;28;20485;-60
2023/03/14 09:44:02;;;;;;;12.18;6.40;;;;;;;;;;5032080;28;20494;-58
2023/03/14 09:46:29;;;;;;;11.18;5.72;;;;;;;;;;5034169;28;20053;-59
2023/03/14 09:48:55;;;;;;;14.23;6.53;;;;;;;;;;5034302;28;20025;-62
2023/03/14 09:51:23;;;;;;;13.18;5.88;;;;;;;;;;5034038;28;20032;-59
2023/03/14 09:53:49;;;;;;;13.10;6.13;;;;;;;;;;5033995;28;20045;-62
2023/03/14 09:56:26;;;;;;;12.05;6.20;;;;;;;;;;5033791;28;20067;-59
2023/03/14 09:58:56;;;;;;;12.75;5.63;;;;;;;;;;5032767;28;20034;-62
2023/03/14 10:01:26;;;;;;;11.70;6.15;;;;;;;;;;5033828;28;20029;-62
2023/03/14 10:03:54;;;;;;;14.55;5.45;;;;;;;;;;5034033;28;20034;-62
2023/03/14 10:06:22;;;;;;;12.90;6.13;;;;;;;;;;5033852;28;20017;-59
2023/03/14 10:08:48;;;;;;;11.80;5.95;;;;;;;;;;5033783;28;20029;-58
2023/03/14 10:11:17;;;;;;;10.98;4.65;;;;;;;;;;5033889;28;20373;-57
2023/03/14 10:14:05;;;;;;;10.20;4.55;;;;;;;;;;5034224;28;20370;-55
2023/03/14 10:16:35;;;;;;;13.20;5.25;;;;;;;;;;5033636;28;20025;-57
2023/03/14 10:19:06;;;;;;;10.52;4.88;;;;;;;;;;5033791;28;20144;-56
2023/03/14 10:21:36;;;;;;;12.20;5.05;;;;;;;;;;5033532;28;20457;-57
2023/03/14 10:24:18;;;;;;;10.85;5.05;;;;;;;;;;5033751;28;20033;-57
2023/03/14 10:26:44;;;;;;;13.30;5.20;;;;;;;;;;5033670;28;20397;-59
2023/03/14 10:29:13;;;;;;;10.77;4.95;;;;;;;;;;5033858;28;20026;-56
2023/03/14 10:31:51;;;;;;;12.52;5.15;;;;;;;;;;5033759;28;20033;-56
2023/03/14 10:34:18;;;;;;;13.85;5.30;;;;;;;;;;5033326;28;20037;-57
2023/03/14 10:36:44;;;;;;;9.60;4.78;;;;;;;;;;5033418;28;20105;-59
2023/03/14 10:39:25;;;;;;;12.05;5.07;;;;;;;;;;5033792;28;20147;-57
2023/03/14 10:41:53;;;;;;;10.50;4.90;;;;;;;;;;5033145;28;20112;-58
2023/03/14 10:44:22;;;;;;;9.93;4.75;;;;;;;;;;5032729;28;20025;-58
2023/03/14 10:46:56;;;;;;;8.98;4.40;;;;;;;;;;5033163;28;20021;-59
2023/03/14 10:49:33;;;;;;;8.70;4.25;;;;;;;;;;5032862;28;20036;-59
2023/03/14 10:52:24;;;;;;;8.55;3.45;;;;;;;;;;5033100;28;20113;-57
2023/03/14 10:55:01;;;;;;;8.90;4.43;;;;;;;;;;5031587;28;20049;-59
2023/03/14 10:57:28;;;;;;;10.07;4.45;;;;;;;;;;5032765;28;20083;-59
2023/03/14 10:59:56;;;;;;;8.52;3.75;;;;;;;;;;5032959;28;20128;-58
2023/03/14 11:02:42;;;;;;;11.05;4.45;;;;;;;;;;5032517;28;20029;-60
2023/03/14 11:05:08;;;;;;;;;;;;;;;;;;5033229;28;20160;-61
2023/03/14 11:07:37;;;;;;;9.18;3.58;;;;;;;;;;5032542;28;20418;-61
2023/03/14 11:10:19;;;;;;;7.60;3.50;;;;;;;;;;5032496;28;20072;-58
2023/03/14 11:13:02;;;;;;;8.98;3.65;;;;;;;;;;5032657;28;20478;-61
2023/03/14 11:15:48;;;;;;;6.75;3.10;;;;;;;;;;5032173;28;20494;-62
2023/03/14 11:18:16;;;;;;;8.27;4.00;;;;;;;;;;5032485;28;20032;-58
2023/03/14 11:20:50;;;;;;;9.98;3.38;;;;;;;;;;5032856;28;20033;-59
2023/03/14 11:23:28;;;;;;;7.63;3.42;;;;;;;;;;5032286;28;20112;-59
2023/03/14 11:26:12;;;;;;;8.27;3.45;;;;;;;;;;5032260;28;20382;-60
2023/03/14 11:28:40;;;;;;;7.65;3.35;;;;;;;;;;5030674;28;20029;-60
2023/03/14 11:31:12;;;;;;;9.25;3.88;;;;;;;;;;5032376;28;20030;-59
2023/03/14 11:33:40;;;;;;;7.25;3.15;;;;;;;;;;5031916;28;20453;-62
2023/03/14 11:36:10;;;;;;;6.47;3.35;;;;;;;;;;5032110;28;20088;-59
2023/03/14 11:38:45;;;;;;;8.05;4.05;;;;;;;;;;5031789;28;20050;-59
2023/03/14 11:41:26;;;;;;;6.50;2.88;;;;;;;;;;5032419;28;20509;-62
2023/03/14 11:43:55;;;;;;;7.22;3.28;;;;;;;;;;5032126;28;20037;-62
2023/03/14 11:46:25;;;;;;;10.02;3.70;;;;;;;;;;5031699;28;20033;-62
2023/03/14 11:49:00;;;;;;;6.88;2.63;;;;;;;;;;5031907;28;20021;-62
2023/03/14 11:51:37;;;;;;;6.97;3.13;;;;;;;;;;5031762;28;20109;-62
2023/03/14 11:54:08;;;;;;;6.95;2.67;;;;;;;;;;5031532;28;20041;-62
2023/03/14 11:56:37;;;;;;;5.90;2.22;;;;;;;;;;5031616;28;20097;-56
2023/03/14 11:59:08;;;;;;;5.68;2.47;;;;;;;;;;5031759;28;20057;-62
2023/03/14 12:01:46;;;;;;;6.22;2.75;;;;;;;;;;5031620;28;20508;-59
2023/03/14 12:04:18;;;;;;;4.25;2.20;;;;;;;;;;5031965;28;20490;-61
2023/03/14 12:06:49;;;;;;;7.22;2.90;;;;;;;;;;5031568;28;20135;-58
2023/03/14 12:09:16;;;;;;;7.55;3.10;;;;;;;;;;5031116;28;20041;-56
2023/03/14 12:11:56;;;;;;;7.82;2.70;;;;;;;;;;5031809;28;20402;-57
2023/03/14 12:14:24;;;;;;;5.47;2.53;;;;;;;;;;5031162;28;20041;-57
2023/03/14 12:16:56;;;;;;;6.03;2.42;;;;;;;;;;5031571;28;20021;-56
2023/03/14 12:19:22;;;;;;;5.25;2.38;;;;;;;;;;5031205;28;20035;-60
2023/03/14 12:21:51;;;;;;;6.45;2.75;;;;;;;;;;5031424;28;20100;-58
2023/03/14 12:24:23;;;;;;;6.88;2.75;;;;;;;;;;5031214;28;20030;-59
2023/03/14 12:26:54;;;;;;;6.15;2.38;;;;;;;;;;5031169;28;20180;-57
2023/03/14 12:29:21;;;;;;;7.80;2.63;;;;;;;;;;5031195;28;20079;-57
2023/03/14 12:31:47;;;;;;;8.20;2.63;;;;;;;;;;5030977;28;20075;-62
2023/03/14 12:34:13;;;;;;;5.75;2.30;;;;;;;;;;5031511;28;20482;-62
2023/03/14 12:36:48;;;;;;;5.18;1.60;;;;;;;;;;5031513;28;20025;-60
2023/03/14 12:39:22;;;;;;;6.95;2.28;;;;;;;;;;5031126;28;20417;-61
2023/03/14 12:42:02;;;;;;;4.70;2.60;;;;;;;;;;5030957;28;20108;-61
2023/03/14 12:44:31;;;;;;;5.68;1.98;;;;;;;;;;5030937;28;20164;-61
2023/03/14 12:46:58;;;;;;;5.88;2.13;;;;;;;;;;5031129;28;20025;-60
2023/03/14 12:49:30;;;;;;;5.57;2.05;;;;;;;;;;5030923;28;20029;-61
2023/03/14 12:52:00;;;;;;;5.10;2.10;;;;;;;;;;5031160;28;20037;-61
2023/03/14 12:54:45;;;;;;;4.60;2.25;;;;;;;;;;5030842;28;20493;-61
2023/03/14 12:57:11;;;;;;;5.78;1.95;;;;;;;;;;5031283;28;20367;-61
2023/03/14 12:59:40;;;;;;;4.70;2.20;;;;;;;;;;5030818;28;20025;-61
2023/03/14 13:02:06;;;;;;;4.55;1.98;;;;;;;;;;5031111;28;20025;-61
2023/03/14 13:04:34;;;;;;;4.60;1.95;;;;;;;;;;5030788;28;20033;-62
2023/03/14 13:07:01;;;;;;;3.97;1.70;;;;;;;;;;5031010;28;20025;-60
2023/03/14 13:09:33;;;;;;;6.20;1.70;;;;;;;;;;5030642;28;20124;-57
2023/03/14 13:12:03;;;;;;;4.30;1.70;;;;;;;;;;5030966;28;20053;-61
2023/03/14 13:14:31;;;;;;;5.60;1.80;;;;;;;;;;5030528;28;20042;-56
2023/03/14 13:16:59;;;;;;;4.88;2.13;;;;;;;;;;5030839;28;20021;-59
2023/03/14 13:19:30;;;;;;;4.05;1.50;;;;;;;;;;5033145;28;20051;-57
2023/03/14 13:21:59;;;;;;;4.40;1.73;;;;;;;;;;5034779;28;20018;-61
2023/03/14 13:24:27;;;;;;;5.25;1.77;;;;;;;;;;5034606;28;20025;-61
2023/03/14 13:26:54;;;;;;;4.45;1.70;;;;;;;;;;5034136;28;20082;-56
2023/03/14 13:29:24;;;;;;;4.82;1.70;;;;;;;;;;5033413;28;20030;-56
2023/03/14 13:31:54;;;;;;;3.65;1.50;;;;;;;;;;5053135;28;20385;-55
2023/03/14 13:34:20;;;;;;;2.80;1.38;;;;;;;;;;5048100;28;20029;-56
2023/03/14 13:36:49;;;;;;;4.30;1.75;;;;;;;;;;5034338;28;20025;-55
2023/03/14 13:39:18;;;;;;;3.15;1.30;;;;;;;;;;5034084;28;20033;-58
2023/03/14 13:41:44;;;;;;;3.38;1.30;;;;;;;;;;5034748;28;20029;-52
2023/03/14 13:44:28;;;;;;;5.43;1.83;;;;;;;;;;5034644;28;20025;-55
2023/03/14 13:46:58;;;;;;;3.13;1.17;;;;;;;;;;5033779;28;20074;-56
2023/03/14 13:49:26;;;;;;;3.15;1.15;;;;;;;;;;5033768;28;20029;-54
2023/03/14 13:51:52;;;;;;;3.38;1.10;;;;;;;;;;5033193;28;20052;-55
2023/03/14 13:54:19;;;;;;;2.92;1.50;;;;;;;;;;5033165;28;20034;-56
2023/03/14 13:56:45;;;;;;;3.90;1.42;;;;;;;;;;5033057;28;20147;-55
2023/03/14 13:59:24;;;;;;;2.72;1.13;;;;;;;;;;5032958;28;20060;-57
2023/03/14 14:01:51;;;;;;;3.20;1.13;;;;;;;;;;5033772;28;20026;-56
2023/03/14 14:04:19;;;;;;;4.43;1.85;;;;;;;;;;5033200;28;20052;-56
2023/03/14 14:06:47;;;;;;;3.95;1.20;;;;;;;;;;5033404;28;20054;-57
2023/03/14 14:09:15;;;;;;;4.25;1.42;;;;;;;;;;5050309;28;20045;-55
2023/03/14 14:11:48;;;;;;;2.67;1.17;;;;;;;;;;5054055;28;20059;-56
2023/03/14 14:14:34;;;;;;;3.13;1.13;;;;;;;;;;5049485;28;20116;-55
2023/03/14 14:17:01;;;;;;;6.22;1.50;;;;;;;;;;5033299;28;20490;-55
2023/03/14 14:19:28;;;;;;;3.55;1.17;;;;;;;;;;5033240;28;20092;-58
2023/03/14 14:21:55;;;;;;;3.20;1.30;;;;;;;;;;5033557;28;20028;-58
2023/03/14 14:24:23;;;;;;;3.90;1.35;;;;;;;;;;5033056;28;20410;-55
2023/03/14 14:26:53;;;;;;;3.40;1.00;;;;;;;;;;5033069;28;20030;-55
2023/03/14 14:29:26;;;;;;;2.90;1.10;;;;;;;;;;5032525;28;20037;-56
2023/03/14 14:32:07;;;;;;;4.68;1.52;;;;;;;;;;5048302;28;20031;-56
2023/03/14 14:34:49;;;;;;;4.57;1.60;;;;;;;;;;5049344;28;20026;-56
2023/03/14 14:37:21;;;;;;;3.97;1.40;;;;;;;;;;5033024;28;20022;-57
2023/03/14 14:39:47;;;;;;;3.58;1.38;;;;;;;;;;5033394;28;20080;-55
2023/03/14 14:42:16;;;;;;;3.38;1.33;;;;;;;;;;5033728;28;20389;-56
2023/03/14 14:44:44;;;;;;;5.53;1.20;;;;;;;;;;5033633;28;20371;-57
2023/03/14 14:47:13;;;;;;;3.08;1.38;;;;;;;;;;5040286;28;20032;-54